Time;durP1;ratioP1;P1;durP2;ratioP2;P2;SDS_P1;SDS_P2;PMS_P1;PMS_P2;Temp;Humidity;BMP_temperature;BMP_pressure;BME280_temperature;BME280_humidity;BME280_pressure;Samples;Min_cycle;Max_cycle;Signal;HPM_P1;HPM_P2
2020/12/20 00:01:40;;;;;;;;;;;;;;;8.08;94.52;99140.56;5112672;27;19915;-83
2020/12/20 00:04:06;;;;;;;;;;;;;;;8.24;93.29;99141.09;5093311;27;20010;-83
2020/12/20 00:06:39;;;;;;;;;;;;;;;8.33;93.32;99148.63;5115382;27;19918;-82
2020/12/20 00:09:22;;;;;;;;;;;;;;;8.28;93.83;99144.44;5115885;27;19916;-82
2020/12/20 00:11:50;;;;;;;;;;;;;;;8.33;92.88;99147.78;5114969;27;19968;-82
2020/12/20 00:14:28;;;;;;;;;;;;;;;8.42;93.06;99147.63;5116826;27;19919;-83
2020/12/20 00:17:05;;;;;;;;;;;;;;;8.25;93.41;99139.38;5117094;27;20421;-83
2020/12/20 00:19:31;;;;;;;;;;;;;;;8.19;93.89;99135.22;5124699;27;19911;-82
2020/12/20 00:22:01;;;;;;;;;;;;;;;8.21;93.63;99138.63;5104827;27;19982;-83
2020/12/20 00:24:27;;;;;;;;;;;;;;;8.20;93.96;99134.34;5097994;27;19912;-82
2020/12/20 00:26:52;;;;;;;;;;;;;;;8.11;94.23;99142.22;5115065;27;19965;-82
2020/12/20 00:29:18;;;;;;;;;;;;;;;8.02;94.59;99143.25;5090014;27;19923;-83
2020/12/20 00:31:43;;;;;;;;;;;;;;;8.13;94.49;99140.47;5115824;27;20886;-82
2020/12/20 00:34:08;;;;;;;;;;;;;;;8.08;94.88;99137.16;5115425;27;19922;-83
2020/12/20 00:36:34;;;;;;;;;;;;;;;8.08;95.19;99150.81;5115764;27;19923;-82
2020/12/20 00:38:59;;;;;;;;;;;;;;;8.12;94.39;99138.81;5124657;27;19912;-82
2020/12/20 00:41:25;;;;;;;;;;;;;;;8.12;94.43;99149.06;5112615;27;20410;-82
2020/12/20 00:43:50;;;;;;;;;;;;;;;8.04;94.79;99145.78;5111617;27;19915;-81
2020/12/20 00:46:16;;;;;;;;;;;;;;;8.00;94.80;99146.72;5110812;27;20360;-83
2020/12/20 00:48:42;;;;;;;;;;;;;;;7.98;95.85;99141.59;5112862;27;19973;-83
2020/12/20 00:51:08;;;;;;;;;;;;;;;7.98;95.35;99149.28;5122279;27;20010;-81
2020/12/20 00:53:33;;;;;;;;;;;;;;;7.90;95.41;99152.03;5109498;27;20388;-82
2020/12/20 00:55:59;;;;;;;;;;;;;;;7.97;95.78;99151.03;5109950;27;19951;-82
2020/12/20 00:58:24;;;;;;;;;;;;;;;8.12;95.36;99149.06;5109806;27;19911;-82
2020/12/20 01:00:49;;;;;;;;;;;;;;;8.05;95.55;99143.19;5109849;27;19915;-83
2020/12/20 01:03:16;;;;;;;;;;;;;;;8.01;95.76;99151.81;5109726;27;19998;-82
2020/12/20 01:05:42;;;;;;;;;;;;;;;8.06;95.88;99144.03;5080281;28;19916;-82
2020/12/20 01:08:09;;;;;;;;;;;;;;;8.10;95.86;99151.66;5068569;28;19916;-82
2020/12/20 01:10:34;;;;;;;;;;;;;;;8.20;94.98;99154.88;5065615;28;20541;-82
2020/12/20 01:13:00;;;;;;;;;;;;;;;8.32;94.42;99152.03;5064224;28;19923;-82
2020/12/20 01:15:29;;;;;;;;;;;;;;;8.31;94.66;99162.34;5082093;28;19993;-82
2020/12/20 01:17:54;;;;;;;;;;;;;;;8.37;94.62;99163.09;5083100;28;19966;-83
2020/12/20 01:20:20;;;;;;;;;;;;;;;8.44;94.13;99162.97;5065348;28;20316;-82
2020/12/20 01:22:45;;;;;;;;;;;;;;;8.42;93.77;99164.75;5075724;22;19931;-91
2020/12/20 01:25:11;;;;;;;;;;;;;;;8.46;94.34;99163.78;5070513;28;20098;-91
2020/12/20 01:27:36;;;;;;;;;;;;;;;8.34;94.57;99163.13;5072422;28;20333;-92
2020/12/20 01:30:01;;;;;;;;;;;;;;;8.38;94.27;99156.22;5087732;28;19926;-91
2020/12/20 01:32:27;;;;;;;;;;;;;;;8.46;94.62;99163.78;5073095;28;19961;-92
2020/12/20 01:34:52;;;;;;;;;;;;;;;8.54;94.00;99157.63;5070348;28;19919;-91
2020/12/20 01:37:17;;;;;;;;;;;;;;;8.39;94.08;99152.75;5069730;28;20470;-91
2020/12/20 01:39:43;;;;;;;;;;;;;;;8.41;94.29;99150.22;5088592;28;19923;-90
2020/12/20 01:42:08;;;;;;;;;;;;;;;8.36;94.41;99145.97;5089656;28;19920;-91
2020/12/20 01:44:36;;;;;;;;;;;;;;;8.37;94.86;99144.28;5087531;28;19965;-91
2020/12/20 01:47:01;;;;;;;;;;;;;;;8.29;95.19;99146.16;5071046;28;19920;-91
2020/12/20 01:49:27;;;;;;;;;;;;;;;8.19;95.62;99148.06;5072235;28;19980;-91
2020/12/20 01:51:52;;;;;;;;;;;;;;;8.22;95.33;99148.00;5070950;28;20384;-91
2020/12/20 01:54:17;;;;;;;;;;;;;;;8.21;95.69;99143.75;5070162;28;20487;-90
2020/12/20 01:56:43;;;;;;;;;;;;;;;8.17;95.76;99154.94;5065393;28;19949;-90
2020/12/20 01:59:08;;;;;;;;;;;;;;;8.18;95.59;99143.78;5084948;28;20036;-90
2020/12/20 02:01:34;;;;;;;;;;;;;;;8.17;96.25;99148.09;5089797;28;19975;-90
2020/12/20 02:04:00;;;;;;;;;;;;;;;8.12;95.95;99143.94;5070478;28;19930;-91
2020/12/20 02:06:25;;;;;;;;;;;;;;;8.17;96.05;99147.25;5069537;28;19920;-90
2020/12/20 02:08:50;;;;;;;;;;;;;;;8.13;96.30;99140.47;5086253;28;19916;-91
2020/12/20 02:11:16;;;;;;;;;;;;;;;8.13;96.00;99137.91;5089820;28;19963;-92
2020/12/20 02:13:45;;;;;;;;;;;;;;;8.05;96.55;99142.34;5070547;28;20005;-90
2020/12/20 02:16:12;;;;;;;;;;;;;;;8.06;96.75;99144.03;5069990;28;19920;-90
2020/12/20 02:18:37;;;;;;;;;;;;;;;8.12;96.72;99143.94;5070118;28;19974;-89
2020/12/20 02:21:06;;;;;;;;;;;;;;;8.13;96.27;99149.00;5071264;28;20640;-91
2020/12/20 02:23:38;;;;;;;;;;;;;;;8.15;96.59;99141.28;5062651;28;19924;-90
2020/12/20 02:26:03;;;;;;;;;;;;;;;8.13;96.28;99138.75;5051876;28;19928;-90
2020/12/20 02:28:28;;;;;;;;;;;;;;;8.15;95.94;99136.16;5067064;28;19920;-91
2020/12/20 02:30:54;;;;;;;;;;;;;;;8.05;96.46;99132.06;5050064;28;19925;-92
2020/12/20 02:33:19;;;;;;;;;;;;;;;8.01;97.02;99125.34;5067474;28;19920;-90
2020/12/20 02:35:44;;;;;;;;;;;;;;;8.04;96.98;99130.41;5051299;28;20747;-90
2020/12/20 02:38:10;;;;;;;;;;;;;;;8.04;97.13;99123.53;5051197;28;19924;-91
2020/12/20 02:40:35;;;;;;;;;;;;;;;8.06;96.95;99123.53;5049728;28;20526;-90
2020/12/20 02:43:00;;;;;;;;;;;;;;;8.02;96.87;99132.16;5050194;28;19920;-90
2020/12/20 02:45:26;;;;;;;;;;;;;;;8.10;96.89;99125.16;5068171;28;19928;-90
2020/12/20 02:47:51;;;;;;;;;;;;;;;8.04;96.95;99126.09;5068504;28;19920;-91
2020/12/20 02:50:16;;;;;;;;;;;;;;;8.01;97.16;99125.34;5065519;28;20174;-91
2020/12/20 02:52:42;;;;;;;;;;;;;;;8.01;97.06;99120.22;5050405;28;20357;-90
2020/12/20 02:55:07;;;;;;;;;;;;;;;8.12;97.33;99128.53;5050335;28;20435;-90
2020/12/20 02:57:32;;;;;;;;;;;;;;;8.20;96.48;99129.22;5049788;28;19916;-89
2020/12/20 02:59:57;;;;;;;;;;;;;;;8.10;96.48;99120.03;5067985;28;19960;-91
2020/12/20 03:02:23;;;;;;;;;;;;;;;8.16;96.94;99119.88;5051220;28;20333;-92
2020/12/20 03:04:48;;;;;;;;;;;;;;;8.19;96.81;99130.09;5048203;28;19935;-91
2020/12/20 03:07:13;;;;;;;;;;;;;;;8.26;96.31;99136.78;5049772;28;19920;-91
2020/12/20 03:09:39;;;;;;;;;;;;;;;8.23;96.95;99136.00;5066174;28;20297;-90
2020/12/20 03:12:04;;;;;;;;;;;;;;;8.22;97.04;99124.91;5051532;28;20645;-90
2020/12/20 03:14:29;;;;;;;;;;;;;;;8.24;96.72;99118.03;5052603;28;20404;-91
2020/12/20 03:16:54;;;;;;;;;;;;;;;8.16;96.93;99122.44;5063502;28;19931;-91
2020/12/20 03:19:20;;;;;;;;;;;;;;;8.18;97.34;99123.25;5048879;28;19966;-90
2020/12/20 03:21:45;;;;;;;;;;;;;;;8.14;97.22;99113.94;5049477;28;20356;-91
2020/12/20 03:24:10;;;;;;;;;;;;;;;8.25;96.63;99111.16;5047518;28;20007;-90
2020/12/20 03:26:36;;;;;;;;;;;;;;;8.24;96.89;99107.75;5030415;28;20018;-90
2020/12/20 03:29:01;;;;;;;;;;;;;;;8.25;97.04;99112.00;5048444;28;19916;-90
2020/12/20 03:31:26;;;;;;;;;;;;;;;8.23;96.79;99111.19;5048357;28;19988;-90
2020/12/20 03:33:51;;;;;;;;;;;;;;;8.25;96.95;99116.28;5041312;28;20006;-90
2020/12/20 03:36:17;;;;;;;;;;;;;;;8.23;97.12;99111.19;5030693;28;19921;-91
2020/12/20 03:38:42;;;;;;;;;;;;;;;8.26;96.85;99110.31;5049957;28;19978;-92
2020/12/20 03:41:08;;;;;;;;;;;;;;;8.13;97.07;99105.41;5045924;28;20693;-91
2020/12/20 03:43:33;;;;;;;;;;;;;;;8.13;97.58;99112.25;5049770;28;19927;-90
2020/12/20 03:45:59;;;;;;;;;;;;;;;8.17;97.36;99109.59;5050092;28;19931;-91
2020/12/20 03:48:24;;;;;;;;;;;;;;;8.22;97.10;99099.25;5050363;28;19924;-90
2020/12/20 03:50:49;;;;;;;;;;;;;;;8.23;97.46;99100.91;5051273;28;19920;-90
2020/12/20 03:53:15;;;;;;;;;;;;;;;8.24;97.29;99097.50;5049348;28;20039;-90
2020/12/20 03:55:40;;;;;;;;;;;;;;;8.20;97.53;99101.00;5032733;28;19939;-92
2020/12/20 03:58:05;;;;;;;;;;;;;;;8.17;97.81;99098.50;5050126;28;19919;-90
2020/12/20 04:00:31;;;;;;;;;;;;;;;8.23;97.98;99106.06;5064742;28;19932;-90
2020/12/20 04:02:56;;;;;;;;;;;;;;;8.25;98.27;99099.16;5046648;28;19924;-90
2020/12/20 04:05:21;;;;;;;;;;;;;;;8.28;97.96;99103.38;5048066;28;19935;-90
2020/12/20 04:07:46;;;;;;;;;;;;;;;8.25;97.29;99109.44;5048944;28;20077;-90
2020/12/20 04:10:12;;;;;;;;;;;;;;;8.37;97.41;99104.06;5050282;28;20875;-90
2020/12/20 04:12:37;;;;;;;;;;;;;;;8.27;98.02;99115.38;5031185;28;20571;-90
2020/12/20 04:15:03;;;;;;;;;;;;;;;8.36;97.65;99116.91;5065441;28;19927;-92
2020/12/20 04:17:28;;;;;;;;;;;;;;;8.32;97.47;99113.56;5065915;28;19923;-89
2020/12/20 04:19:54;;;;;;;;;;;;;;;8.29;98.01;99120.50;5033757;28;20511;-89
2020/12/20 04:22:19;;;;;;;;;;;;;;;8.36;97.87;99122.88;5053500;28;19975;-89
2020/12/20 04:24:44;;;;;;;;;;;;;;;8.31;97.80;99119.56;5069205;28;19931;-91
2020/12/20 04:27:09;;;;;;;;;;;;;;;8.33;97.54;99117.81;5051309;28;19920;-90
2020/12/20 04:29:35;;;;;;;;;;;;;;;8.36;97.11;99112.63;5056245;28;20280;-90
2020/12/20 04:32:02;;;;;;;;;;;;;;;8.25;98.22;99118.84;5045027;28;20022;-90
2020/12/20 04:34:28;;;;;;;;;;;;;;;8.31;98.16;99122.13;5054846;28;19921;-91
2020/12/20 04:36:53;;;;;;;;;;;;;;;8.30;97.51;99119.59;5050459;28;19927;-90
2020/12/20 04:39:18;;;;;;;;;;;;;;;8.32;97.35;99121.25;5070364;28;19930;-90
2020/12/20 04:41:43;;;;;;;;;;;;;;;8.21;98.39;99122.34;5071024;28;19924;-91
2020/12/20 04:44:09;;;;;;;;;;;;;;;8.29;97.98;99123.88;5070954;28;20451;-91
2020/12/20 04:46:34;;;;;;;;;;;;;;;8.18;98.78;99113.00;5054721;28;19931;-89
2020/12/20 04:49:00;;;;;;;;;;;;;;;8.27;98.21;99117.09;5055296;28;19924;-90
2020/12/20 04:51:25;;;;;;;;;;;;;;;8.27;98.03;99117.09;5069696;28;19974;-91
2020/12/20 04:53:50;;;;;;;;;;;;;;;8.35;98.11;99122.94;5070608;28;19962;-88
2020/12/20 04:56:15;;;;;;;;;;;;;;;8.23;99.00;99136.84;5054279;28;19921;-91
2020/12/20 04:58:41;;;;;;;;;;;;;;;8.26;97.72;99136.78;5068131;28;19920;-91
2020/12/20 05:01:07;;;;;;;;;;;;;;;8.31;98.33;99145.22;5072944;28;19925;-90
2020/12/20 05:03:32;;;;;;;;;;;;;;;8.22;98.84;99150.56;5051315;28;19943;-91
2020/12/20 05:05:57;;;;;;;;;;;;;;;8.20;98.32;99142.03;5050805;28;19920;-90
2020/12/20 05:08:23;;;;;;;;;;;;;;;8.14;99.03;99137.91;5053921;28;20014;-91
2020/12/20 05:10:49;;;;;;;;;;;;;;;8.24;98.56;99146.25;5040585;28;19920;-92
2020/12/20 05:13:14;;;;;;;;;;;;;;;8.29;98.30;99135.88;5035468;28;19986;-90
2020/12/20 05:15:40;;;;;;;;;;;;;;;8.14;98.35;99137.03;5054272;28;19927;-91
2020/12/20 05:18:12;;;;;;;;;;;;;;;8.21;98.17;99137.75;5069640;28;19917;-90
2020/12/20 05:20:39;;;;;;;;;;;;;;;8.22;97.45;99135.16;5050437;28;19927;-90
2020/12/20 05:23:04;;;;;;;;;;;;;;;8.16;98.62;99132.72;5056709;28;20023;-91
2020/12/20 05:25:30;;;;;;;;;;;;;;;8.20;98.11;99142.03;5073348;28;20423;-91
2020/12/20 05:28:05;;;;;;;;;;;;;;;8.29;97.92;99141.84;5073090;28;19994;-90
2020/12/20 05:30:30;;;;;;;;;;;;;;;8.24;97.79;99138.53;5088227;28;19920;-89
2020/12/20 05:32:55;;;;;;;;;;;;;;;8.22;98.37;99134.31;5087867;28;20493;-90
2020/12/20 05:35:21;;;;;;;;;;;;;;;8.25;98.63;99129.97;5069210;28;20303;-92
2020/12/20 05:37:46;;;;;;;;;;;;;;;8.27;97.93;99138.47;5071329;28;19934;-90
2020/12/20 05:40:24;;;;;;;;;;;;;;;8.19;98.74;99145.50;5070949;28;19972;-90
2020/12/20 05:42:52;;;;;;;;;;;;;;;8.22;98.10;99134.31;5090559;28;19920;-91
2020/12/20 05:45:18;;;;;;;;;;;;;;;8.24;97.76;99133.41;5086154;28;19919;-90
2020/12/20 05:47:44;;;;;;;;;;;;;;;8.19;98.68;99130.09;5088415;28;19920;-91
2020/12/20 05:50:11;;;;;;;;;;;;;;;8.16;98.74;99138.72;5069596;28;19920;-91
2020/12/20 05:52:36;;;;;;;;;;;;;;;8.14;98.50;99137.03;5070065;28;20264;-90
2020/12/20 05:55:01;;;;;;;;;;;;;;;8.26;98.23;99135.97;5072949;28;19927;-89
2020/12/20 05:57:27;;;;;;;;;;;;;;;8.21;98.48;99136.06;5071501;28;19920;-91
2020/12/20 05:59:52;;;;;;;;;;;;;;;8.25;98.32;99139.38;5072246;28;20532;-89
2020/12/20 06:02:18;;;;;;;;;;;;;;;8.22;98.33;99135.16;5070700;28;19924;-90
2020/12/20 06:04:44;;;;;;;;;;;;;;;8.19;97.96;99135.22;5069148;28;19954;-90
2020/12/20 06:07:10;;;;;;;;;;;;;;;8.05;98.73;99137.19;5068692;28;19938;-90
2020/12/20 06:09:46;;;;;;;;;;;;;;;8.09;99.01;99134.56;5066223;28;19920;-90
2020/12/20 06:12:11;;;;;;;;;;;;;;;8.03;98.84;99128.69;5070102;28;19919;-91
2020/12/20 06:14:37;;;;;;;;;;;;;;;8.07;98.97;99126.03;5069872;28;19927;-89
2020/12/20 06:17:08;;;;;;;;;;;;;;;8.00;98.72;99133.91;5069238;28;20308;-90
2020/12/20 06:19:36;;;;;;;;;;;;;;;7.99;99.34;99132.22;5089382;28;19931;-89
2020/12/20 06:22:01;;;;;;;;;;;;;;;8.02;98.67;99127.84;5071143;28;20786;-90
2020/12/20 06:24:27;;;;;;;;;;;;;;;7.94;99.03;99128.00;5071094;28;19924;-88
2020/12/20 06:26:52;;;;;;;;;;;;;;;8.00;99.13;99141.59;5065863;28;19924;-90
2020/12/20 06:29:18;;;;;;;;;;;;;;;7.90;99.75;99146.06;5068519;28;19916;-90
2020/12/20 06:31:43;;;;;;;;;;;;;;;8.00;99.50;99139.03;5069157;28;20259;-90
2020/12/20 06:34:11;;;;;;;;;;;;;;;8.00;98.84;99139.03;5090961;28;20328;-90
2020/12/20 06:36:36;;;;;;;;;;;;;;;7.98;99.13;99136.47;5066847;28;19926;-89
2020/12/20 06:39:01;;;;;;;;;;;;;;;8.02;98.85;99142.41;5068646;28;20422;-89
2020/12/20 06:41:33;;;;;;;;;;;;;;;8.00;98.98;99133.91;5085842;28;19978;-89
2020/12/20 06:43:58;;;;;;;;;;;;;;;7.89;99.55;99134.97;5084826;28;19966;-90
2020/12/20 06:46:43;;;;;;;;;;;;;;;7.97;99.60;99140.78;5083533;28;20634;-90
2020/12/20 06:49:28;;;;;;;;;;;;;;;7.95;99.51;99142.50;5081170;28;19998;-89
2020/12/20 06:52:13;;;;;;;;;;;;;;;7.98;99.45;99139.03;5082884;28;19920;-90
2020/12/20 06:54:38;;;;;;;;;;;;;;;8.01;99.10;99145.84;5085624;28;20018;-90
2020/12/20 06:57:08;;;;;;;;;;;;;;;8.01;99.34;99140.72;5069454;28;20790;-89
2020/12/20 06:59:43;;;;;;;;;;;;;;;8.02;98.95;99139.84;5090024;28;19916;-90
2020/12/20 07:02:09;;;;;;;;;;;;;;;7.94;98.95;99143.41;5068399;28;20360;-89
2020/12/20 07:04:43;;;;;;;;;;;;;;;7.96;99.49;99139.09;5085002;28;19926;-89
2020/12/20 07:07:10;;;;;;;;;;;;;;;7.96;98.98;99149.34;5085854;28;20015;-91
2020/12/20 07:09:35;;;;;;;;;;;;;;;8.05;98.98;99144.91;5069027;28;19924;-90
2020/12/20 07:12:00;;;;;;;;;;;;;;;8.01;99.21;99151.00;5083942;28;19955;-90
2020/12/20 07:14:25;;;;;;;;;;;;;;;8.03;99.43;99154.34;5069868;28;20295;-91
2020/12/20 07:16:51;;;;;;;;;;;;;;;8.05;98.63;99147.47;5086406;28;19955;-89
2020/12/20 07:19:20;;;;;;;;;;;;;;;7.98;99.15;99157.00;5068663;28;19923;-89
2020/12/20 07:21:55;;;;;;;;;;;;;;;8.07;98.78;99159.38;5069966;28;19923;-91
2020/12/20 07:24:23;;;;;;;;;;;;;;;8.00;98.61;99159.53;5044941;28;19977;-91
2020/12/20 07:26:53;;;;;;;;;;;;;;;8.02;98.44;99168.06;5071331;28;20058;-89
2020/12/20 07:29:19;;;;;;;;;;;;;;;7.94;99.43;99171.59;5071725;28;20398;-90
2020/12/20 07:31:45;;;;;;;;;;;;;;;7.99;99.29;99168.13;5069284;28;19920;-90
2020/12/20 07:34:10;;;;;;;;;;;;;;;7.99;99.16;99170.69;5070918;28;20355;-91
2020/12/20 07:36:35;;;;;;;;;;;;;;;7.90;99.42;99169.97;5072574;28;19920;-91
2020/12/20 07:39:01;;;;;;;;;;;;;;;8.05;98.82;99178.25;5090890;28;19915;-94
2020/12/20 07:41:27;;;;;;;;;;;;;;;8.02;98.85;99178.31;5075097;28;19920;-93
2020/12/20 07:43:52;;;;;;;;;;;;;;;7.95;99.13;99173.28;5072904;28;19919;-89
2020/12/20 07:46:18;;;;;;;;;;;;;;;7.89;99.78;99173.41;5072222;28;19912;-92
2020/12/20 07:48:43;;;;;;;;;;;;;;;7.93;99.71;99169.91;5071105;28;19990;-90
2020/12/20 07:51:12;;;;;;;;;;;;;;;7.94;99.36;99168.22;5089969;28;19920;-92
2020/12/20 07:53:50;;;;;;;;;;;;;;;7.88;99.62;99165.75;5070371;28;19919;-91
2020/12/20 07:56:25;;;;;;;;;;;;;;;7.94;99.73;99171.59;5093946;28;19919;-92
2020/12/20 07:58:51;;;;;;;;;;;;;;;7.93;99.37;99169.91;5091984;28;19916;-92
2020/12/20 08:01:17;;;;;;;;;;;;;;;7.89;99.53;99170.00;5073413;28;20830;-91
2020/12/20 08:03:42;;;;;;;;;;;;;;;7.94;99.76;99166.47;5074842;28;19920;-91
2020/12/20 08:06:08;;;;;;;;;;;;;;;7.89;100.00;99163.16;5077143;28;19920;-92
2020/12/20 08:08:34;;;;;;;;;;;;;;;7.91;99.86;99171.69;5078264;28;19927;-93
2020/12/20 08:11:01;;;;;;;;;;;;;;;7.94;99.62;99174.16;5074838;28;20009;-92
2020/12/20 08:13:27;;;;;;;;;;;;;;;7.95;99.09;99170.72;5076577;28;20336;-92
2020/12/20 08:15:52;;;;;;;;;;;;;;;7.90;99.58;99164.84;5076656;28;19927;-94
2020/12/20 08:18:18;;;;;;;;;;;;;;;7.92;99.99;99170.78;5076286;28;19931;-93
2020/12/20 08:20:43;;;;;;;;;;;;;;;7.85;100.00;99165.81;5078724;28;19920;-94
2020/12/20 08:23:08;;;;;;;;;;;;;;;7.86;99.62;99168.31;5076651;28;19924;-93
2020/12/20 08:25:34;;;;;;;;;;;;;;;7.90;99.78;99164.00;5076190;28;20378;-93
2020/12/20 08:27:59;;;;;;;;;;;;;;;7.90;99.05;99175.09;5074852;28;19920;-91
2020/12/20 08:30:24;;;;;;;;;;;;;;;7.90;99.58;99174.25;5076585;28;19950;-91
2020/12/20 08:32:49;;;;;;;;;;;;;;;7.90;99.46;99175.09;5072862;28;19991;-93
2020/12/20 08:35:15;;;;;;;;;;;;;;;7.89;99.52;99178.56;5074022;28;19956;-93
2020/12/20 08:37:41;;;;;;;;;;;;;;;7.89;99.71;99183.69;5076672;28;19927;-96
2020/12/20 08:40:11;;;;;;;;;;;;;;;7.90;99.51;99182.78;5071551;28;19924;-94
2020/12/20 08:42:36;;;;;;;;;;;;;;;7.89;99.86;99176.00;5069379;28;19920;-90
2020/12/20 08:45:09;;;;;;;;;;;;;;;7.94;99.50;99181.03;5089651;28;19974;-91
2020/12/20 08:47:35;;;;;;;;;;;;;;;8.03;98.95;99182.56;5077601;28;20212;-92
2020/12/20 08:50:00;;;;;;;;;;;;;;;7.89;99.13;99183.69;5075947;28;20358;-94
2020/12/20 08:52:26;;;;;;;;;;;;;;;7.95;99.36;99195.53;5075998;28;19920;-93
2020/12/20 08:54:51;;;;;;;;;;;;;;;7.99;99.42;99194.59;5077628;28;19920;-92
2020/12/20 08:57:16;;;;;;;;;;;;;;;8.18;98.49;99206.19;5075371;28;19923;-91
2020/12/20 08:59:42;;;;;;;;;;;;;;;8.23;98.27;99218.94;5074745;28;19920;-92
2020/12/20 09:02:08;;;;;;;;;;;;;;;8.32;97.25;99223.88;5088050;28;19962;-90
2020/12/20 09:04:37;;;;;;;;;;;;;;;8.31;97.49;99224.78;5073992;28;19916;-92
2020/12/20 09:07:03;;;;;;;;;;;;;;;8.27;97.86;99219.72;5072982;28;20181;-93
2020/12/20 09:09:29;;;;;;;;;;;;;;;8.30;97.81;99225.66;5089184;28;19920;-92
2020/12/20 09:11:56;;;;;;;;;;;;;;;8.30;97.54;99233.38;5074468;28;19940;-95
2020/12/20 09:14:21;;;;;;;;;;;;;;;8.49;96.88;99240.75;5076251;28;19920;-92
2020/12/20 09:16:48;;;;;;;;;;;;;;;8.52;96.99;99241.50;5072468;28;19927;-95
2020/12/20 09:19:13;;;;;;;;;;;;;;;8.44;97.51;99243.41;5075933;28;19919;-94
2020/12/20 09:21:38;;;;;;;;;;;;;;;8.44;97.57;99247.66;5073631;28;20435;-90
2020/12/20 09:24:04;;;;;;;;;;;;;;;8.44;96.54;99250.22;5082555;28;19946;-87
2020/12/20 09:26:35;;;;;;;;;;;;;;;8.44;96.47;99257.91;5087442;28;19960;-95
2020/12/20 09:29:07;;;;;;;;;;;;;;;8.56;97.12;99258.53;5057709;28;19923;-89
2020/12/20 09:31:32;;;;;;;;;;;;;;;8.51;97.05;99254.38;5046825;28;19933;-88
2020/12/20 09:34:00;;;;;;;;;;;;;;;8.61;96.30;99261.03;5075800;28;21059;-87
2020/12/20 09:36:26;;;;;;;;;;;;;;;8.57;96.71;99259.38;5078017;28;19949;-89
2020/12/20 09:38:55;;;;;;;;;;;;;;;8.54;96.20;99269.72;5067132;28;19928;-88
2020/12/20 09:41:30;;;;;;;;;;;;;;;8.47;96.98;99268.16;5079394;28;19945;-88
2020/12/20 09:43:56;;;;;;;;;;;;;;;8.46;96.99;99272.44;5080087;28;19967;-91
2020/12/20 09:46:22;;;;;;;;;;;;;;;8.67;96.38;99272.91;5062463;28;20015;-88
2020/12/20 09:48:48;;;;;;;;;;;;;;;8.53;96.75;99266.31;5075766;28;19976;-88
2020/12/20 09:51:13;;;;;;;;;;;;;;;8.55;96.63;99263.69;5076992;28;19924;-88
2020/12/20 09:53:38;;;;;;;;;;;;;;;8.62;95.63;99264.44;5077153;28;19970;-88
2020/12/20 09:56:04;;;;;;;;;;;;;;;8.47;97.31;99269.00;5079408;28;20060;-91
2020/12/20 09:58:29;;;;;;;;;;;;;;;8.56;96.46;99267.97;5061427;28;21100;-88
2020/12/20 10:00:55;;;;;;;;;;;;;;;8.54;96.32;99270.56;5078417;28;19931;-88
2020/12/20 10:03:20;;;;;;;;;;;;;;;8.57;96.83;99275.63;5076667;28;19931;-87
2020/12/20 10:05:46;;;;;;;;;;;;;;;8.60;96.54;99277.31;5076363;28;19919;-87
2020/12/20 10:08:14;;;;;;;;;;;;;;;8.65;95.80;99278.06;5074509;28;19931;-87
2020/12/20 10:10:40;;;;;;;;;;;;;;;8.52;97.18;99276.59;5077406;28;19928;-87
2020/12/20 10:13:05;;;;;;;;;;;;;;;8.46;97.00;99286.97;5081402;28;19919;-88
2020/12/20 10:15:30;;;;;;;;;;;;;;;8.38;97.53;99284.53;5076887;28;19973;-89
2020/12/20 10:17:57;;;;;;;;;;;;;;;8.34;97.35;99283.72;5077846;28;19920;-87
2020/12/20 10:20:22;;;;;;;;;;;;;;;8.21;97.99;99289.09;5087260;28;19924;-87
2020/12/20 10:22:48;;;;;;;;;;;;;;;8.34;97.58;99288.84;5082412;28;19924;-89
2020/12/20 10:25:13;;;;;;;;;;;;;;;8.34;97.39;99277.75;5087816;28;19941;-88
2020/12/20 10:27:39;;;;;;;;;;;;;;;8.35;97.56;99284.59;5085541;28;20347;-88
2020/12/20 10:30:05;;;;;;;;;;;;;;;8.22;97.94;99283.97;5084817;28;19961;-89
2020/12/20 10:32:30;;;;;;;;;;;;;;;8.27;97.94;99271.88;5074057;28;19923;-89
2020/12/20 10:34:55;;;;;;;;;;;;;;;8.24;98.32;99274.53;5087151;28;19920;-88
2020/12/20 10:37:21;;;;;;;;;;;;;;;8.28;97.54;99267.59;5089188;28;19951;-90
2020/12/20 10:39:46;;;;;;;;;;;;;;;8.33;97.60;99271.78;5086450;28;19942;-88
2020/12/20 10:42:14;;;;;;;;;;;;;;;8.44;97.24;99268.19;5069492;28;19980;-89
2020/12/20 10:44:40;;;;;;;;;;;;;;;8.38;97.53;99264.84;5069696;28;19974;-88
2020/12/20 10:47:06;;;;;;;;;;;;;;;8.40;97.58;99263.97;5071297;28;19970;-89
2020/12/20 10:49:32;;;;;;;;;;;;;;;8.42;97.22;99259.69;5070784;28;19924;-88
2020/12/20 10:51:58;;;;;;;;;;;;;;;8.40;97.17;99261.41;5082050;28;20286;-93
2020/12/20 10:54:29;;;;;;;;;;;;;;;8.45;97.17;99239.09;5087893;28;19946;-92
2020/12/20 10:57:01;;;;;;;;;;;;;;;8.53;97.11;99250.03;5071121;28;19930;-91
2020/12/20 10:59:27;;;;;;;;;;;;;;;8.43;97.21;99251.13;5075044;28;19919;-92
2020/12/20 11:01:53;;;;;;;;;;;;;;;8.46;96.70;99245.91;5046341;28;19920;-93
2020/12/20 11:04:19;;;;;;;;;;;;;;;8.42;97.38;99246.88;5072792;28;19945;-93
2020/12/20 11:06:44;;;;;;;;;;;;;;;8.50;96.72;99238.13;5073746;28;19966;-92
2020/12/20 11:09:09;;;;;;;;;;;;;;;8.46;97.03;99243.34;5073833;28;20007;-93
2020/12/20 11:11:34;;;;;;;;;;;;;;;8.43;96.83;99240.84;5073318;28;19967;-91
2020/12/20 11:14:00;;;;;;;;;;;;;;;8.42;96.91;99245.13;5068637;28;19920;-92
2020/12/20 11:16:26;;;;;;;;;;;;;;;8.38;97.08;99244.31;5073388;28;19919;-93
2020/12/20 11:18:51;;;;;;;;;;;;;;;8.43;96.91;99239.13;5072317;28;20026;-91
2020/12/20 11:21:17;;;;;;;;;;;;;;;8.47;96.65;99239.91;5071743;28;19959;-92
2020/12/20 11:23:43;;;;;;;;;;;;;;;8.56;96.41;99242.31;5074104;28;20287;-93
2020/12/20 11:26:11;;;;;;;;;;;;;;;8.61;96.14;99232.78;5073733;28;19923;-91
2020/12/20 11:28:37;;;;;;;;;;;;;;;8.61;95.99;99225.06;5085392;28;20023;-90
2020/12/20 11:31:03;;;;;;;;;;;;;;;8.79;95.36;99229.81;5073993;28;19995;-91
2020/12/20 11:33:28;;;;;;;;;;;;;;;8.87;95.54;99236.53;5072887;28;19919;-91
2020/12/20 11:35:53;;;;;;;;;;;;;;;8.93;94.94;99232.09;5077861;28;19923;-96
2020/12/20 11:38:19;;;;;;;;;;;;;;;8.86;94.99;99224.56;5072143;28;19998;-93
2020/12/20 11:40:47;;;;;;;;;;;;;;;8.84;94.91;99226.31;5089430;28;19927;-96
2020/12/20 11:43:12;;;;;;;;;;;;;;;8.87;94.95;99232.25;5076195;28;19961;-92
2020/12/20 11:45:38;;;;;;;;;;;;;;;8.94;95.02;99232.94;5078964;28;19923;-92
2020/12/20 11:48:03;;;;;;;;;;;;;;;8.92;94.71;99230.44;5078290;28;19926;-90
2020/12/20 11:50:28;;;;;;;;;;;;;;;8.98;94.68;99235.41;5077404;28;20595;-93
2020/12/20 11:52:54;;;;;;;;;;;;;;;9.15;94.09;99221.38;5078249;28;19924;-92
2020/12/20 11:55:19;;;;;;;;;;;;;;;9.14;94.17;99228.22;5078878;28;20003;-92
2020/12/20 11:57:44;;;;;;;;;;;;;;;9.03;94.19;99235.31;5077334;28;19924;-91
2020/12/20 12:00:10;;;;;;;;;;;;;;;9.06;94.17;99237.81;5094232;28;19920;-95
2020/12/20 12:02:35;;;;;;;;;;;;;;;9.23;93.63;99234.03;5075098;28;19923;-95
2020/12/20 12:05:00;;;;;;;;;;;;;;;9.21;93.80;99232.34;5076501;28;19939;-95
2020/12/20 12:07:26;;;;;;;;;;;;;;;9.42;93.33;99230.16;5077923;28;20759;-94
2020/12/20 12:09:51;;;;;;;;;;;;;;;9.15;93.46;99227.34;5080316;28;19916;-96
2020/12/20 12:12:16;;;;;;;;;;;;;;;9.10;93.92;99236.03;5075199;28;19920;-94
2020/12/20 12:14:41;;;;;;;;;;;;;;;9.35;93.42;99226.03;5082095;28;20003;-96
2020/12/20 12:17:07;;;;;;;;;;;;;;;9.30;93.61;99235.56;5115392;22;19928;-82
2020/12/20 12:19:32;;;;;;;;;;;;;;;9.34;93.44;99240.59;5071152;28;20015;-80
2020/12/20 12:21:57;;;;;;;;;;;;;;;9.32;92.93;99231.25;5057299;28;19920;-82
2020/12/20 12:24:23;;;;;;;;;;;;;;;9.33;93.53;99241.50;5056182;28;19923;-82
2020/12/20 12:26:48;;;;;;;;;;;;;;;9.36;93.15;99235.44;5065903;28;19927;-81
2020/12/20 12:29:13;;;;;;;;;;;;;;;9.21;93.29;99227.22;5056154;28;19962;-81
2020/12/20 12:31:39;;;;;;;;;;;;;;;9.30;93.57;99230.44;5074224;28;19927;-84
2020/12/20 12:34:04;;;;;;;;;;;;;;;9.23;93.62;99228.88;5056999;28;20381;-82
2020/12/20 12:36:30;;;;;;;;;;;;;;;9.04;93.64;99238.75;5072951;28;20050;-82
2020/12/20 12:38:57;;;;;;;;;;;;;;;9.08;93.50;99238.63;5072676;28;20379;-81
2020/12/20 12:41:26;;;;;;;;;;;;;;;9.21;93.51;99237.50;5066094;28;19994;-82
2020/12/20 12:43:51;;;;;;;;;;;;;;;9.33;93.58;99232.97;5073422;28;20304;-82
2020/12/20 12:46:17;;;;;;;;;;;;;;;9.10;93.43;99233.44;5055970;28;19916;-81
2020/12/20 12:48:42;;;;;;;;;;;;;;;9.09;93.71;99235.19;5066642;28;20361;-82
2020/12/20 12:51:08;;;;;;;;;;;;;;;9.15;94.44;99235.06;5080362;28;19924;-82
2020/12/20 12:53:33;;;;;;;;;;;;;;;9.28;93.25;99234.75;5053576;28;20442;-82